Time;durP1;ratioP1;P1;durP2;ratioP2;P2;SDS_P1;SDS_P2;PMS_P1;PMS_P2;Temp;Humidity;BMP_temperature;BMP_pressure;BME280_temperature;BME280_humidity;BME280_pressure;Samples;Min_cycle;Max_cycle;Signal;HPM_P1;HPM_P2
2021/10/25 00:00:58;;;;;;;3.77;1.90;;;;;;;6.75;81.73;101261.59;5058955;28;20225;-88
2021/10/25 00:03:24;;;;;;;1.73;1.63;;;;;;;6.71;82.00;101267.63;5061426;28;20212;-87
2021/10/25 00:05:51;;;;;;;2.23;1.80;;;;;;;6.71;80.75;101274.53;5060618;28;20213;-88
2021/10/25 00:08:17;;;;;;;1.63;1.53;;;;;;;6.70;80.27;101290.94;5059162;28;20227;-87
2021/10/25 00:10:45;;;;;;;2.13;1.73;;;;;;;6.60;80.33;101315.06;5059275;28;20243;-87
2021/10/25 00:13:13;;;;;;;2.37;1.80;;;;;;;6.57;80.33;101306.38;5058372;28;20739;-87
2021/10/25 00:15:39;;;;;;;2.00;1.50;;;;;;;6.53;80.70;101299.41;5058904;28;20209;-86
2021/10/25 00:18:06;;;;;;;1.80;1.53;;;;;;;6.46;81.59;101283.78;5062152;28;20209;-89
2021/10/25 00:20:33;;;;;;;2.17;1.30;;;;;;;6.40;81.20;101273.31;5061999;28;20221;-88
2021/10/25 00:23:01;;;;;;;1.73;1.63;;;;;;;6.34;80.78;101269.81;5061878;28;20265;-89
2021/10/25 00:25:27;;;;;;;1.97;1.77;;;;;;;6.34;81.23;101263.75;5062590;28;20200;-88
2021/10/25 00:28:00;;;;;;;3.53;1.63;;;;;;;6.33;81.53;101262.88;5061777;28;20225;-88
2021/10/25 00:30:29;;;;;;;2.50;2.00;;;;;;;6.32;81.39;101263.75;5061294;28;20233;-87
2021/10/25 00:32:55;;;;;;;2.10;1.63;;;;;;;6.29;81.90;101255.06;5061579;28;20208;-88
2021/10/25 00:35:22;;;;;;;1.77;1.50;;;;;;;6.21;82.90;101221.28;5061667;28;20218;-87
2021/10/25 00:37:49;;;;;;;2.03;1.60;;;;;;;6.20;81.84;101232.47;5062087;28;20213;-87
2021/10/25 00:40:20;;;;;;;1.60;1.50;;;;;;;6.21;81.41;101244.59;5062094;28;20236;-89
2021/10/25 00:42:46;;;;;;;3.33;1.70;;;;;;;6.22;82.15;101230.78;5063276;28;20226;-87
2021/10/25 00:45:13;;;;;;;1.87;1.50;;;;;;;6.15;82.77;101229.84;5063026;28;20242;-89
2021/10/25 00:47:41;;;;;;;1.80;1.70;;;;;;;6.15;82.96;101218.59;5063177;28;20593;-87
2021/10/25 00:50:08;;;;;;;2.83;1.77;;;;;;;6.18;83.36;101192.69;5063919;28;20228;-88
2021/10/25 00:52:37;;;;;;;2.23;1.77;;;;;;;6.18;83.36;101192.69;5058963;28;20217;-87
2021/10/25 00:55:05;;;;;;;2.37;1.60;;;;;;;6.16;83.22;101189.22;5047794;28;20581;-88
2021/10/25 00:57:32;;;;;;;2.20;2.00;;;;;;;6.01;82.22;101225.34;5064288;28;20211;-88
2021/10/25 00:59:59;;;;;;;2.37;1.97;;;;;;;6.04;83.02;101213.28;5065220;28;20225;-88
2021/10/25 01:02:25;;;;;;;4.27;1.70;;;;;;;6.00;83.29;101200.28;5060293;28;20277;-87
2021/10/25 01:04:53;;;;;;;2.07;1.60;;;;;;;6.01;83.22;101189.06;5057030;28;20201;-86
2021/10/25 01:07:20;;;;;;;1.70;1.53;;;;;;;6.08;83.16;101183.09;5056598;28;20236;-87
2021/10/25 01:09:49;;;;;;;3.53;2.00;;;;;;;5.99;83.00;101183.88;5057085;28;20247;-88
2021/10/25 01:12:16;;;;;;;2.60;1.77;;;;;;;5.91;83.95;101169.91;5056062;28;20268;-88
2021/10/25 01:14:43;;;;;;;4.80;1.93;;;;;;;5.90;85.71;101112.03;5056050;28;20213;-87
2021/10/25 01:17:10;;;;;;;2.60;2.07;;;;;;;5.95;84.70;101130.28;5055926;28;20205;-87
2021/10/25 01:19:38;;;;;;;4.17;2.07;;;;;;;5.93;85.41;101106.88;5055725;28;20760;-88
2021/10/25 01:22:07;;;;;;;2.97;2.00;;;;;;;5.99;85.20;101116.50;5056081;28;20210;-87
2021/10/25 01:24:33;;;;;;;3.53;2.10;;;;;;;5.90;85.14;101122.38;5055929;28;20211;-87
2021/10/25 01:27:00;;;;;;;5.03;1.70;;;;;;;5.89;84.77;101125.84;5055592;28;20200;-87
2021/10/25 01:29:26;;;;;;;4.30;1.60;;;;;;;5.95;84.74;101138.91;5055064;28;20287;-87
2021/10/25 01:31:53;;;;;;;3.23;1.97;;;;;;;5.99;84.27;101145.00;5055075;28;20208;-88
2021/10/25 01:34:20;;;;;;;1.77;1.67;;;;;;;6.03;84.05;101158.84;5054062;28;20200;-87
2021/10/25 01:36:47;;;;;;;2.00;1.80;;;;;;;6.03;84.18;101151.09;5052304;28;20215;-87
2021/10/25 01:39:15;;;;;;;2.27;1.90;;;;;;;6.01;84.52;101161.44;5055329;28;20660;-87
2021/10/25 01:41:41;;;;;;;5.20;2.67;;;;;;;6.00;84.17;101149.31;5059334;28;20197;-87
2021/10/25 01:44:11;;;;;;;2.70;2.00;;;;;;;6.04;83.72;101165.75;5061184;28;20271;-87
2021/10/25 01:46:37;;;;;;;2.33;1.67;;;;;;;6.01;83.79;101171.78;5066048;28;20727;-87
2021/10/25 01:49:05;;;;;;;2.40;1.83;;;;;;;6.03;83.38;101177.00;5064487;28;20588;-87
2021/10/25 01:51:31;;;;;;;2.50;1.67;;;;;;;6.03;82.98;101179.59;5063641;28;20198;-88
2021/10/25 01:53:58;;;;;;;1.83;1.67;;;;;;;6.00;83.75;101179.53;5063497;28;20212;-88
2021/10/25 01:56:27;;;;;;;1.97;1.83;;;;;;;6.02;82.59;101186.47;5063643;28;20670;-88
2021/10/25 01:58:54;;;;;;;3.40;2.10;;;;;;;5.98;83.11;101197.66;5062188;28;20207;-87
2021/10/25 02:01:21;;;;;;;4.03;2.23;;;;;;;5.97;83.21;101195.94;5061414;28;20211;-86
2021/10/25 02:03:48;;;;;;;3.00;1.97;;;;;;;5.89;83.53;101189.75;5062373;28;20212;-87
2021/10/25 02:06:14;;;;;;;5.77;1.93;;;;;;;5.91;82.75;101206.19;5061755;28;20205;-87
2021/10/25 02:08:41;;;;;;;3.23;2.10;;;;;;;5.88;83.03;101183.69;5061072;28;20235;-86
2021/10/25 02:11:08;;;;;;;2.97;2.00;;;;;;;5.83;83.45;101163.75;5061887;28;20647;-87
2021/10/25 02:13:36;;;;;;;2.93;1.80;;;;;;;5.80;83.58;101162.00;5061779;28;20238;-87
2021/10/25 02:16:02;;;;;;;2.87;2.13;;;;;;;5.82;83.80;101167.22;5061140;28;20203;-86
2021/10/25 02:18:29;;;;;;;2.23;1.90;;;;;;;5.78;83.17;101169.75;5060704;28;20204;-87
2021/10/25 02:20:55;;;;;;;3.10;2.30;;;;;;;5.75;83.45;101164.53;5061208;28;20227;-88
2021/10/25 02:23:26;;;;;;;6.67;2.57;;;;;;;5.79;83.47;101162.88;5062377;28;20237;-86
2021/10/25 02:25:53;;;;;;;1.90;1.80;;;;;;;5.79;83.39;101155.09;5060984;28;20197;-87
2021/10/25 02:28:20;;;;;;;3.30;2.00;;;;;;;5.74;83.39;101141.19;5061436;28;20232;-88
2021/10/25 02:30:49;;;;;;;3.73;2.00;;;;;;;5.74;84.36;101126.53;5061630;28;20235;-89
2021/10/25 02:33:17;;;;;;;2.33;2.13;;;;;;;5.77;82.83;101147.28;5059475;28;20210;-87
2021/10/25 02:35:43;;;;;;;2.73;2.03;;;;;;;5.76;83.54;101161.09;5059428;28;20691;-88
2021/10/25 02:38:10;;;;;;;2.27;1.73;;;;;;;5.76;83.73;101155.91;5060598;28;20215;-89
2021/10/25 02:40:38;;;;;;;2.40;2.17;;;;;;;5.73;83.06;101148.13;5060656;28;20224;-87
2021/10/25 02:43:07;;;;;;;3.47;2.20;;;;;;;5.76;82.70;101168.84;5060446;28;20656;-88
2021/10/25 02:45:34;;;;;;;2.03;1.80;;;;;;;5.80;82.70;101162.00;5059396;28;20683;-89
2021/10/25 02:48:02;;;;;;;3.63;1.90;;;;;;;5.77;82.59;101170.63;5059215;28;20278;-88
2021/10/25 02:50:29;;;;;;;3.47;2.10;;;;;;;5.85;82.06;101191.44;5059269;28;20224;-86
2021/10/25 02:52:57;;;;;;;2.20;2.00;;;;;;;5.89;81.70;101203.56;5058489;28;20226;-88
2021/10/25 02:55:33;;;;;;;;;;;;;;;;;;;;;
2021/10/25 02:58:02;;;;;;;3.10;1.90;;;;;;;5.88;82.24;101178.50;5059539;28;20743;-88
2021/10/25 03:00:29;;;;;;;3.47;2.07;;;;;;;5.83;83.17;101175.00;5059037;28;20720;-88
2021/10/25 03:02:55;;;;;;;1.77;1.63;;;;;;;5.77;83.08;101147.28;5057540;28;20221;-87
2021/10/25 03:05:24;;;;;;;2.33;2.10;;;;;;;5.76;83.57;101129.13;5057647;28;20275;-87
2021/10/25 03:07:50;;;;;;;3.87;2.47;;;;;;;5.75;83.72;101122.22;5057379;28;20240;-87
2021/10/25 03:10:18;;;;;;;2.63;2.03;;;;;;;5.72;83.70;101127.38;5051299;28;20244;-86
2021/10/25 03:12:47;;;;;;;3.37;1.90;;;;;;;5.72;83.17;101128.22;5050492;28;20208;-87
2021/10/25 03:15:15;;;;;;;3.13;2.07;;;;;;;5.72;83.27;101137.72;5037477;28;20202;-88
2021/10/25 03:17:43;;;;;;;2.83;2.40;;;;;;;5.69;83.62;101132.50;5037624;28;20201;-87
2021/10/25 03:20:12;;;;;;;2.80;1.80;;;;;;;5.66;83.21;101141.09;5046778;28;20930;-88
2021/10/25 03:22:40;;;;;;;3.70;2.13;;;;;;;5.62;83.40;101128.97;5057573;28;20224;-87
2021/10/25 03:25:09;;;;;;;2.00;1.80;;;;;;;5.61;82.59;101139.31;5058796;28;20204;-87
2021/10/25 03:27:36;;;;;;;2.97;2.00;;;;;;;5.58;83.69;101125.47;5044509;28;20200;-87
2021/10/25 03:30:04;;;;;;;1.97;1.77;;;;;;;5.56;83.68;101111.63;5059065;28;20246;-88
2021/10/25 03:32:30;;;;;;;3.00;2.27;;;;;;;5.52;84.22;101096.91;5053223;28;20205;-88
2021/10/25 03:34:57;;;;;;;3.43;2.40;;;;;;;5.52;83.95;101083.97;5059777;28;20343;-88
2021/10/25 03:37:24;;;;;;;2.10;1.90;;;;;;;5.55;83.86;101101.28;5050733;28;20201;-87
2021/10/25 03:39:52;;;;;;;4.33;2.53;;;;;;;5.55;84.28;101093.50;5058890;28;20235;-86
2021/10/25 03:42:26;;;;;;;2.00;1.70;;;;;;;5.45;84.77;101073.50;5050595;28;20214;-87
2021/10/25 03:45:06;;;;;;;6.00;2.30;;;;;;;5.42;84.70;101076.06;5052850;28;20214;-88
2021/10/25 03:47:37;;;;;;;3.40;2.23;;;;;;;5.47;83.96;101093.41;5059616;28;20205;-87
2021/10/25 03:50:08;;;;;;;3.70;2.30;;;;;;;5.51;84.03;101089.13;5037709;28;20566;-87
2021/10/25 03:52:40;;;;;;;3.03;2.33;;;;;;;5.53;83.89;101096.06;5045683;28;20232;-88
2021/10/25 03:55:12;;;;;;;3.23;2.63;;;;;;;5.46;83.90;101101.16;5056233;28;20286;-88
2021/10/25 03:58:05;;;;;;;2.67;2.37;;;;;;;5.46;83.91;101093.38;5037376;28;20205;-88
2021/10/25 04:00:49;;;;;;;3.23;2.30;;;;;;;5.49;84.08;101091.72;5036866;28;20702;-88
2021/10/25 04:25:34;;;;;;;3.73;3.43;;;;;;;5.30;83.43;101131.16;5056438;28;20298;-87
2021/10/25 04:28:06;;;;;;;3.10;2.77;;;;;;;5.31;83.38;101123.41;5057737;28;20212;-88
2021/10/25 04:30:33;;;;;;;3.40;2.60;;;;;;;5.30;83.02;101118.19;5057311;28;20258;-86
2021/10/25 04:33:01;;;;;;;3.33;3.03;;;;;;;5.25;83.84;101109.50;5056775;28;20230;-88
2021/10/25 04:35:28;;;;;;;6.03;2.87;;;;;;;5.14;84.01;101086.94;5056703;28;20212;-89
2021/10/25 04:37:55;;;;;;;3.00;2.60;;;;;;;5.14;84.41;101079.16;5058253;28;20271;-87
2021/10/25 04:40:24;;;;;;;4.87;2.83;;;;;;;5.11;84.18;101079.13;5058378;28;20229;-89
2021/10/25 04:42:51;;;;;;;4.40;2.33;;;;;;;5.09;84.71;101054.94;5056726;28;20215;-88
2021/10/25 04:45:19;;;;;;;3.47;2.60;;;;;;;5.08;85.02;101042.84;5056933;28;20205;-86
2021/10/25 04:47:46;;;;;;;2.53;2.17;;;;;;;5.13;85.37;101045.50;5057513;28;20298;-87
2021/10/25 04:50:13;;;;;;;4.07;3.20;;;;;;;5.17;85.42;101031.75;5056673;28;20229;-88
2021/10/25 04:52:39;;;;;;;3.77;2.63;;;;;;;5.20;85.27;101036.97;5049479;28;20678;-89
2021/10/25 04:55:07;;;;;;;3.57;3.00;;;;;;;5.22;84.92;101044.78;5055185;28;20289;-87
2021/10/25 04:57:33;;;;;;;4.43;2.70;;;;;;;5.22;85.36;101017.16;5056327;28;20210;-86
2021/10/25 05:00:00;;;;;;;4.27;3.07;;;;;;;5.27;85.74;101020.69;5055498;28;20230;-87
2021/10/25 05:02:34;;;;;;;4.83;3.20;;;;;;;5.28;85.37;101025.00;5056802;28;20208;-87
2021/10/25 05:05:05;;;;;;;4.63;3.17;;;;;;;5.27;84.96;101040.50;5059046;28;20210;-86
2021/10/25 05:07:32;;;;;;;3.50;3.17;;;;;;;5.28;85.28;101017.22;5056500;28;20208;-87
2021/10/25 05:09:59;;;;;;;5.40;3.23;;;;;;;5.31;85.51;101022.47;5056119;28;20231;-86
2021/10/25 05:12:26;;;;;;;3.00;2.70;;;;;;;5.29;85.14;101024.16;5056801;28;20295;-87
2021/10/25 05:14:53;;;;;;;5.33;2.90;;;;;;;5.29;85.38;101018.09;5056379;28;20211;-87
2021/10/25 05:17:19;;;;;;;3.40;2.80;;;;;;;5.27;85.60;101015.50;5059254;28;20551;-87
2021/10/25 05:19:47;;;;;;;4.00;3.27;;;;;;;5.25;85.09;101019.78;5060378;28;20248;-87
2021/10/25 05:22:14;;;;;;;3.57;3.03;;;;;;;5.23;85.59;101008.53;5060384;28;20212;-88
2021/10/25 05:24:45;;;;;;;4.70;2.90;;;;;;;5.24;85.91;100991.31;5059635;28;20201;-89
2021/10/25 05:27:17;;;;;;;3.03;2.73;;;;;;;5.18;85.77;100990.38;5039654;28;20222;-89
2021/10/25 05:29:48;;;;;;;3.53;2.53;;;;;;;5.17;85.47;100999.00;5039065;28;20235;-88
2021/10/25 05:32:15;;;;;;;2.50;2.30;;;;;;;5.16;85.14;101009.31;5038611;28;20180;-88
2021/10/25 05:34:41;;;;;;;3.10;2.73;;;;;;;5.12;85.33;101011.00;5038008;28;20202;-88
2021/10/25 05:37:09;;;;;;;4.33;2.90;;;;;;;5.08;85.86;101018.72;5038263;28;20211;-87
2021/10/25 05:39:36;;;;;;;3.20;2.70;;;;;;;5.04;85.29;101004.00;5037351;28;20228;-88
2021/10/25 05:42:06;;;;;;;3.07;2.70;;;;;;;5.00;85.97;100986.69;5037916;28;20552;-88
2021/10/25 05:44:33;;;;;;;2.43;2.23;;;;;;;4.93;86.40;100983.16;5038031;28;20258;-87
2021/10/25 05:47:00;;;;;;;2.80;2.50;;;;;;;4.92;85.44;100986.59;5037446;28;20214;-87
2021/10/25 05:49:26;;;;;;;2.70;2.50;;;;;;;4.90;85.36;100996.91;5037556;28;20264;-88
2021/10/25 05:51:53;;;;;;;2.33;2.10;;;;;;;4.81;85.62;100991.63;5036799;28;20784;-89
2021/10/25 05:54:22;;;;;;;2.97;2.50;;;;;;;4.84;85.43;100988.22;5036728;28;20307;-89
2021/10/25 05:56:48;;;;;;;3.33;3.03;;;;;;;4.82;85.57;100993.38;5036347;28;20632;-89
2021/10/25 05:59:15;;;;;;;3.47;3.13;;;;;;;4.78;85.34;100987.28;5041238;28;20312;-88
2021/10/25 06:01:44;;;;;;;3.17;2.87;;;;;;;4.75;85.74;100997.56;5052106;28;20213;-89
2021/10/25 06:04:13;;;;;;;2.73;2.53;;;;;;;4.75;85.76;100989.81;5043103;28;20211;-91
2021/10/25 06:06:39;;;;;;;3.27;2.97;;;;;;;4.75;85.78;100989.81;5043767;28;20210;-85
2021/10/25 06:09:06;;;;;;;3.53;2.77;;;;;;;4.74;86.39;100982.06;5059138;28;20960;-86
2021/10/25 06:11:36;;;;;;;3.27;2.97;;;;;;;4.77;86.43;100979.50;5053176;28;20209;-91
2021/10/25 06:14:04;;;;;;;3.37;2.97;;;;;;;4.81;86.71;100983.00;5043084;28;20231;-87
2021/10/25 06:16:39;;;;;;;9.17;3.30;;;;;;;4.83;86.87;100971.81;5045273;28;20662;-86
2021/10/25 06:19:07;;;;;;;5.20;2.93;;;;;;;4.80;87.46;100950.19;5055701;28;20263;-85
2021/10/25 06:21:34;;;;;;;2.77;2.40;;;;;;;4.81;86.93;100972.66;5058443;28;20214;-86
2021/10/25 06:24:01;;;;;;;2.90;2.53;;;;;;;4.78;86.82;100973.47;5059757;28;20231;-85
2021/10/25 06:26:27;;;;;;;3.63;2.93;;;;;;;4.78;86.81;100984.69;5061747;28;20203;-85
2021/10/25 06:28:56;;;;;;;3.57;2.97;;;;;;;4.76;86.55;100986.38;5058726;28;20200;-84
2021/10/25 06:31:23;;;;;;;6.03;3.50;;;;;;;4.77;87.17;100980.34;5046347;28;20203;-85
2021/10/25 06:33:49;;;;;;;3.83;2.70;;;;;;;4.76;87.33;100972.59;5052288;28;20201;-85
2021/10/25 06:36:19;;;;;;;4.10;2.90;;;;;;;4.73;87.62;100968.22;5058547;28;20198;-85
2021/10/25 06:38:53;;;;;;;3.37;2.73;;;;;;;4.75;87.42;100958.78;5040809;28;20218;-85
2021/10/25 06:41:20;;;;;;;3.27;2.97;;;;;;;4.79;87.39;100951.94;5041803;28;20584;-85
2021/10/25 06:43:47;;;;;;;3.80;3.23;;;;;;;4.80;87.59;100950.19;5040017;28;20207;-83
2021/10/25 06:46:17;;;;;;;3.07;2.70;;;;;;;4.80;88.30;100926.94;5038403;28;20203;-84
2021/10/25 06:48:43;;;;;;;3.50;3.20;;;;;;;4.83;87.93;100925.25;5038110;28;20207;-84
2021/10/25 06:51:10;;;;;;;2.97;2.77;;;;;;;4.87;88.16;100923.59;5046933;28;20229;-83
2021/10/25 06:53:36;;;;;;;3.80;2.70;;;;;;;4.90;88.29;100911.56;5046047;28;20689;-82
2021/10/25 06:56:03;;;;;;;3.90;2.80;;;;;;;4.96;88.14;100911.63;5057755;28;20206;-83
2021/10/25 06:58:30;;;;;;;2.77;2.50;;;;;;;4.93;88.04;100921.06;5057252;28;20670;-83
2021/10/25 07:00:58;;;;;;;3.73;2.70;;;;;;;5.00;88.14;100932.38;5051154;28;20230;-85
2021/10/25 07:03:26;;;;;;;3.17;2.87;;;;;;;5.00;88.19;100925.47;5037225;28;20208;-84
2021/10/25 07:05:53;;;;;;;3.00;2.77;;;;;;;5.04;88.94;100910.84;5036816;28;20259;-85
2021/10/25 07:08:20;;;;;;;3.10;2.83;;;;;;;5.12;89.62;100897.13;5036180;28;20205;-85
2021/10/25 07:10:47;;;;;;;4.10;3.10;;;;;;;5.14;89.11;100907.50;5036571;28;20244;-86
2021/10/25 07:13:14;;;;;;;4.43;3.30;;;;;;;5.23;89.82;100888.63;5037293;28;20216;-85
2021/10/25 07:15:46;;;;;;;4.70;4.10;;;;;;;5.34;90.85;100853.34;5037445;28;20234;-86
2021/10/25 07:18:16;;;;;;;5.77;5.27;;;;;;;5.43;90.35;100843.09;5037015;28;20202;-82
2021/10/25 07:21:08;;;;;;;6.10;4.57;;;;;;;5.47;89.96;100864.69;5037327;28;20218;-83
2021/10/25 07:23:57;;;;;;;5.87;5.37;;;;;;;5.46;88.41;100906.97;5053705;28;20268;-85
2021/10/25 08:05:11;;;;;;;5.87;4.80;;;;;;;6.23;86.61;100972.44;5028887;28;20201;-82
2021/10/25 08:07:43;;;;;;;5.93;5.23;;;;;;;6.21;87.07;100985.38;5048512;28;20206;-83
2021/10/25 08:10:14;;;;;;;5.67;4.70;;;;;;;6.31;88.24;100966.44;5041732;28;20279;-83
2021/10/25 08:12:46;;;;;;;5.50;5.00;;;;;;;6.43;87.42;100950.09;5039382;28;20291;-83
2021/10/25 08:15:20;;;;;;;5.30;4.80;;;;;;;6.46;87.17;100957.00;5042329;28;20194;-84
2021/10/25 08:17:50;;;;;;;5.23;4.73;;;;;;;6.46;87.38;100957.00;5040036;28;20230;-83
2021/10/25 08:20:17;;;;;;;5.30;4.53;;;;;;;6.52;87.49;100931.09;5056215;28;20312;-80
2021/10/25 08:22:44;;;;;;;4.57;3.20;;;;;;;6.58;87.75;100925.97;5050201;28;20674;-84
2021/10/25 08:25:13;;;;;;;4.13;3.73;;;;;;;6.67;86.91;100969.25;5055641;28;20679;-83
2021/10/25 08:27:41;;;;;;;6.23;3.73;;;;;;;6.82;85.03;101029.00;5055940;28;20212;-82
2021/10/25 08:30:08;;;;;;;7.03;4.03;;;;;;;7.00;82.67;101103.53;5049440;28;20229;-83
2021/10/25 08:35:32;;;;;;;4.00;3.67;;;;;;;7.27;80.64;101172.03;5041377;28;20214;-83
2021/10/25 08:40:44;;;;;;;5.47;3.77;;;;;;;7.49;80.00;101205.09;5052938;28;20278;-82
2021/10/25 08:43:12;;;;;;;5.67;4.03;;;;;;;7.63;81.20;101197.38;5038601;28;20204;-81
2021/10/25 08:45:40;;;;;;;3.63;3.33;;;;;;;7.78;79.95;101208.72;5035684;28;20215;-83
2021/10/25 08:48:08;;;;;;;4.60;3.73;;;;;;;7.90;80.96;101198.38;5055736;28;20208;-83
2021/10/25 08:50:35;;;;;;;3.73;3.33;;;;;;;8.03;80.08;101238.31;5049830;28;20221;-82
2021/10/25 08:53:03;;;;;;;3.90;3.60;;;;;;;8.13;79.32;101243.53;5049308;28;20635;-83
2021/10/25 08:55:30;;;;;;;4.37;3.97;;;;;;;8.21;77.54;101285.19;5051910;28;20198;-83
2021/10/25 08:57:58;;;;;;;3.93;3.63;;;;;;;8.34;78.42;101280.88;5041807;28;20218;-83
2021/10/25 09:00:41;;;;;;;3.70;3.40;;;;;;;8.40;76.50;101335.53;5038811;28;20275;-82
2021/10/25 09:03:09;;;;;;;4.67;3.27;;;;;;;8.50;77.41;101336.47;5045130;28;20197;-81
2021/10/25 09:05:36;;;;;;;5.40;2.73;;;;;;;8.57;76.15;101342.59;5043387;28;20208;-81
2021/10/25 09:08:05;;;;;;;4.17;3.87;;;;;;;8.64;76.89;101341.75;5035372;28;20220;-82
2021/10/25 09:10:36;;;;;;;3.57;3.27;;;;;;;8.71;76.38;101354.78;5045126;28;20232;-81
2021/10/25 09:13:06;;;;;;;5.70;2.80;;;;;;;8.81;77.31;101334.84;5049182;28;20209;-82
2021/10/25 09:15:37;;;;;;;3.57;3.27;;;;;;;8.84;76.37;101349.59;5047511;28;20202;-79
2021/10/25 09:18:11;;;;;;;3.70;3.40;;;;;;;8.89;75.65;101364.38;5048955;28;20231;-85
2021/10/25 09:20:46;;;;;;;3.13;2.83;;;;;;;8.96;76.05;101362.69;5049641;28;20744;-83
2021/10/25 09:23:14;;;;;;;3.97;3.20;;;;;;;9.02;76.04;101362.69;5038859;28;20208;-84
2021/10/25 09:25:41;;;;;;;3.23;2.87;;;;;;;9.09;75.99;101387.88;5047526;28;20201;-83
2021/10/25 09:28:29;;;;;;;3.70;3.00;;;;;;;9.20;74.45;101405.28;5045168;28;20212;-83
2021/10/25 09:30:58;;;;;;;4.77;3.00;;;;;;;9.26;75.53;101385.31;5032946;28;20295;-83
2021/10/25 09:33:32;;;;;;;3.33;2.97;;;;;;;9.32;75.06;101395.75;5022983;28;20690;-84
2021/10/25 09:36:02;;;;;;;3.80;3.17;;;;;;;9.39;74.86;101404.44;5018866;28;20233;-86
2021/10/25 09:38:36;;;;;;;3.27;2.60;;;;;;;9.43;74.69;101418.34;5016580;28;20692;-85
2021/10/25 09:49:28;;;;;;;3.50;2.90;;;;;;;9.52;74.83;101403.59;5020976;28;20225;-82
2021/10/25 09:51:56;;;;;;;3.27;2.97;;;;;;;9.62;76.05;101378.41;5030730;28;20264;-82
2021/10/25 09:54:23;;;;;;;5.03;2.97;;;;;;;9.65;74.39;101417.50;5032503;28;20897;-82
2021/10/25 09:57:02;;;;;;;3.50;2.80;;;;;;;9.71;74.67;101401.88;5024788;28;20623;-82
2021/10/25 09:59:34;;;;;;;3.63;2.67;;;;;;;9.71;74.43;101383.63;5028156;28;20229;-82
2021/10/25 10:02:03;;;;;;;3.67;3.20;;;;;;;9.68;74.00;101416.63;5018528;28;20187;-80
2021/10/25 10:04:30;;;;;;;3.50;3.20;;;;;;;9.70;73.66;101427.94;5035418;28;20207;-81
2021/10/25 10:06:58;;;;;;;4.03;3.20;;;;;;;9.76;74.70;101401.84;5033385;28;20655;-80
2021/10/25 10:09:25;;;;;;;2.83;2.63;;;;;;;9.72;74.42;101415.75;5030684;28;20227;-82
2021/10/25 10:11:52;;;;;;;3.40;3.10;;;;;;;9.72;74.65;101376.66;5033656;28;20225;-80
2021/10/25 10:14:20;;;;;;;2.97;2.77;;;;;;;9.72;75.61;101372.31;5028476;28;20195;-83
2021/10/25 10:16:48;;;;;;;3.20;3.00;;;;;;;9.76;75.35;101362.75;5030965;28;20213;-84
2021/10/25 10:19:21;;;;;;;4.70;2.77;;;;;;;9.78;75.48;101350.56;5030870;28;20244;-84
2021/10/25 10:21:49;;;;;;;3.50;3.20;;;;;;;9.85;74.23;101394.03;5038454;28;20641;-84
2021/10/25 10:24:16;;;;;;;3.53;2.93;;;;;;;9.89;74.24;101407.91;5038831;28;20202;-85
2021/10/25 10:26:53;;;;;;;5.17;2.70;;;;;;;9.94;76.07;101346.22;5039109;28;20225;-83
2021/10/25 10:29:20;;;;;;;3.43;3.13;;;;;;;9.92;74.80;101372.28;5038554;28;20226;-84
2021/10/25 10:31:58;;;;;;;2.87;2.67;;;;;;;9.96;74.71;101375.75;5037569;28;20229;-82
2021/10/25 10:34:37;;;;;;;4.13;3.20;;;;;;;10.04;75.73;101352.28;5031796;28;20214;-86
2021/10/25 10:40:24;;;;;;;5.13;2.70;;;;;;;10.11;74.45;101373.13;5001633;28;20237;-84
2021/10/25 10:42:53;;;;;;;6.37;2.80;;;;;;;10.25;77.67;101301.78;5040076;28;20220;-86
2021/10/25 10:45:21;;;;;;;6.40;3.07;;;;;;;10.27;74.29;101355.72;5038294;28;20635;-86
2021/10/25 10:47:59;;;;;;;3.83;3.00;;;;;;;10.27;73.82;101397.47;5026797;28;20210;-83
2021/10/25 10:50:31;;;;;;;6.13;2.97;;;;;;;10.34;73.88;101427.03;5033926;28;20703;-82
2021/10/25 10:53:02;;;;;;;3.50;2.83;;;;;;;10.38;73.66;101407.03;5039071;28;20225;-80
2021/10/25 10:55:29;;;;;;;3.37;2.70;;;;;;;10.44;73.13;101425.28;5038837;28;20225;-82
2021/10/25 11:00:35;;;;;;;2.67;2.37;;;;;;;10.59;73.21;101433.06;5039268;28;20687;-81
2021/10/25 11:03:14;;;;;;;3.30;3.00;;;;;;;10.67;71.86;101451.34;5038887;28;20273;-81
2021/10/25 11:05:43;;;;;;;2.80;2.60;;;;;;;10.76;71.97;101473.94;5039344;28;20248;-81
2021/10/25 11:08:11;;;;;;;3.60;2.40;;;;;;;10.89;71.78;101471.28;5038339;28;20296;-82
2021/10/25 11:10:40;;;;;;;3.97;2.73;;;;;;;11.02;70.97;101486.88;5039078;28;20230;-81
2021/10/25 11:13:13;;;;;;;3.73;2.57;;;;;;;11.15;70.18;101500.78;5037587;28;20209;-81
2021/10/25 11:16:01;;;;;;;2.93;2.73;;;;;;;11.36;70.58;101523.34;5039782;28;20202;-85
2021/10/25 11:18:34;;;;;;;3.10;2.83;;;;;;;11.52;70.96;101510.19;5036011;28;20202;-83
2021/10/25 11:21:16;;;;;;;3.03;2.77;;;;;;;11.60;70.36;101536.28;5036433;28;20692;-83
2021/10/25 11:23:44;;;;;;;3.13;2.70;;;;;;;11.79;69.78;101547.50;5036408;28;20226;-81
2021/10/25 11:26:18;;;;;;;4.17;2.87;;;;;;;11.94;68.59;101609.38;5037160;28;20203;-83
2021/10/25 11:29:00;;;;;;;3.67;2.90;;;;;;;12.00;67.79;101621.56;5036941;28;20209;-81
2021/10/25 11:31:27;;;;;;;3.73;3.00;;;;;;;12.03;66.34;101681.72;5046196;28;20318;-81
2021/10/25 11:33:56;;;;;;;4.73;3.13;;;;;;;12.22;67.51;101672.03;5044699;28;20668;-82
2021/10/25 11:36:27;;;;;;;3.43;3.13;;;;;;;12.21;65.59;101699.06;5046033;28;20211;-81
2021/10/25 11:38:54;;;;;;;4.23;3.47;;;;;;;12.15;65.95;101710.47;5039410;28;20665;-81
2021/10/25 11:41:20;;;;;;;4.53;2.97;;;;;;;12.09;66.04;101726.19;5036366;28;20203;-81
2021/10/25 11:43:47;;;;;;;3.53;2.90;;;;;;;12.15;65.47;101722.66;5035268;28;20565;-82
2021/10/25 11:46:19;;;;;;;4.83;3.10;;;;;;;12.32;65.65;101695.53;5035541;28;20556;-82
2021/10/25 11:48:56;;;;;;;3.27;2.90;;;;;;;12.30;64.12;101754.88;5036522;28;20279;-82
2021/10/25 11:51:24;;;;;;;3.03;2.73;;;;;;;12.36;64.25;101751.38;5036643;28;20308;-82
2021/10/25 11:53:55;;;;;;;3.63;2.50;;;;;;;12.55;65.75;101704.09;5036906;28;20681;-81
2021/10/25 11:56:22;;;;;;;3.40;2.60;;;;;;;12.52;64.23;101757.38;5037402;28;20212;-79
2021/10/25 11:58:49;;;;;;;2.40;2.20;;;;;;;12.64;64.10;101766.94;5035764;28;20209;-81
2021/10/25 12:01:16;;;;;;;2.83;2.60;;;;;;;12.85;65.49;101718.75;5037889;28;20211;-80
2021/10/25 12:03:42;;;;;;;3.10;2.60;;;;;;;12.71;63.64;101790.47;5037331;28;20247;-79
2021/10/25 12:06:18;;;;;;;2.90;2.70;;;;;;;12.86;65.31;101712.63;5037287;28;20211;-80
2021/10/25 12:08:57;;;;;;;2.60;2.30;;;;;;;13.00;64.05;101744.84;5037649;28;20221;-80
2021/10/25 12:11:49;;;;;;;3.30;2.50;;;;;;;13.15;63.59;101758.72;5036439;28;20318;-81
2021/10/25 12:14:17;;;;;;;5.17;2.90;;;;;;;13.09;63.91;101739.50;5037433;28;20242;-81
2021/10/25 12:16:47;;;;;;;6.47;3.03;;;;;;;12.97;63.27;101757.97;5037293;28;20215;-81
2021/10/25 12:19:14;;;;;;;4.10;2.97;;;;;;;12.96;62.83;101790.28;5035709;28;20227;-81
2021/10/25 12:21:42;;;;;;;2.90;2.50;;;;;;;12.92;61.56;101825.25;4339954;28;10001471;-81
2021/10/25 12:24:10;;;;;;;2.60;2.40;;;;;;;12.92;63.25;101741.41;5033716;28;20217;-79
2021/10/25 12:26:37;;;;;;;2.53;2.33;;;;;;;13.09;63.42;101739.50;5033279;28;20215;-80
2021/10/25 12:29:17;;;;;;;2.40;2.20;;;;;;;13.24;61.00;101787.47;5032812;28;20268;-79
2021/10/25 12:31:45;;;;;;;2.87;2.53;;;;;;;13.29;60.32;101841.66;5033784;28;20817;-79
2021/10/25 12:34:12;;;;;;;3.07;2.63;;;;;;;13.38;60.89;101837.19;5033772;28;20212;-80
2021/10/25 12:36:43;;;;;;;2.60;2.30;;;;;;;13.42;61.55;101821.44;5035695;28;20211;-81
2021/10/25 12:39:13;;;;;;;3.93;2.70;;;;;;;13.53;61.86;101804.75;5034245;28;20230;-82
2021/10/25 12:41:52;;;;;;;3.77;2.60;;;;;;;13.65;64.37;101707.53;5034524;28;20274;-81
2021/10/25 12:44:28;;;;;;;7.70;2.57;;;;;;;13.58;64.11;101690.16;5033802;28;20200;-82
2021/10/25 12:47:08;;;;;;;3.53;3.20;;;;;;;13.03;60.18;101823.44;5034384;28;20207;-81
2021/10/25 12:49:35;;;;;;;3.23;2.80;;;;;;;13.17;63.38;101739.44;5033545;28;20997;-81
2021/10/25 12:52:09;;;;;;;2.60;2.40;;;;;;;13.10;63.98;101716.78;5033885;28;20249;-82
2021/10/25 12:54:37;;;;;;;3.03;2.83;;;;;;;12.94;62.90;101744.00;5027886;28;20584;-83
2021/10/25 12:57:15;;;;;;;3.33;3.00;;;;;;;12.83;62.43;101751.97;5034496;28;20266;-84
2021/10/25 12:59:42;;;;;;;3.27;2.97;;;;;;;12.81;63.28;101717.91;5033946;28;20231;-82
2021/10/25 13:02:09;;;;;;;4.67;3.13;;;;;;;12.86;65.15;101663.72;5032728;28;20200;-82
2021/10/25 13:04:36;;;;;;;5.90;3.70;;;;;;;12.80;64.78;101644.53;5035676;28;20203;-80